Time;durP1;ratioP1;P1;durP2;ratioP2;P2;SDS_P1;SDS_P2;PMS_P1;PMS_P2;Temp;Humidity;BMP_temperature;BMP_pressure;BME280_temperature;BME280_humidity;BME280_pressure;Samples;Min_cycle;Max_cycle;Signal;HPM_P1;HPM_P2
2022/03/02 00:00:07;;;;;;;;;53.75;41.25;;;;;15.91;38.62;101963.91;5079718;28;61992;-75
2022/03/02 00:02:32;;;;;;;;;58.75;39.25;;;;;15.88;39.45;101958.50;5079759;28;62086;-74
2022/03/02 00:04:58;;;;;;;;;54.25;38.75;;;;;15.88;38.99;101961.16;5081028;27;61936;-74
2022/03/02 00:07:23;;;;;;;;;59.25;41.25;;;;;15.85;38.92;101959.28;5077545;27;62064;-75
2022/03/02 00:09:48;;;;;;;;;47.50;35.75;;;;;15.84;39.30;101953.94;5080331;27;62122;-74
2022/03/02 00:12:14;;;;;;;;;58.50;39.75;;;;;15.84;39.40;101948.63;5080650;27;62160;-74
2022/03/02 00:14:39;;;;;;;;;49.25;39.00;;;;;15.84;39.54;101946.88;5080415;27;62383;-75
2022/03/02 00:17:05;;;;;;;;;52.00;42.25;;;;;15.84;39.30;101935.38;5078349;27;63706;-74
2022/03/02 00:19:30;;;;;;;;;46.00;40.75;;;;;15.81;39.47;101938.81;5079261;28;61957;-74
2022/03/02 00:21:56;;;;;;;;;54.00;42.50;;;;;15.75;39.63;101935.91;5080810;27;62128;-74
2022/03/02 00:24:21;;;;;;;;;53.75;39.50;;;;;15.72;39.92;101942.00;5081386;27;62218;-74
2022/03/02 00:26:47;;;;;;;;;58.00;45.00;;;;;15.72;39.77;101930.47;5078655;27;64967;-75
2022/03/02 00:29:13;;;;;;;;;57.75;41.00;;;;;15.71;39.86;101939.25;5081019;27;62259;-75
2022/03/02 00:31:38;;;;;;;;;55.50;45.50;;;;;15.72;40.13;101928.75;5079429;27;61974;-74
2022/03/02 00:34:03;;;;;;;;;45.00;38.00;;;;;15.73;39.79;101933.19;5081289;27;62005;-75
2022/03/02 00:36:29;;;;;;;;;46.75;39.00;;;;;15.70;39.49;101938.34;5080384;27;62044;-75
2022/03/02 00:38:54;;;;;;;;;54.00;41.50;;;;;15.69;39.71;101938.28;5083718;27;62103;-75
2022/03/02 00:41:20;;;;;;;;;56.00;41.50;;;;;15.60;39.78;101927.31;5084928;27;62306;-75
2022/03/02 00:43:47;;;;;;;;;54.25;41.00;;;;;15.60;40.36;101935.25;5082759;27;62587;-75
2022/03/02 00:46:14;;;;;;;;;50.00;40.75;;;;;15.62;39.78;101936.22;5084120;27;63009;-74
2022/03/02 00:48:39;;;;;;;;;50.75;41.75;;;;;15.61;39.85;101935.28;5083233;27;61861;-74
2022/03/02 00:51:05;;;;;;;;;48.75;38.25;;;;;15.65;40.06;101928.38;5082688;27;62060;-74
2022/03/02 00:53:31;;;;;;;;;52.25;38.00;;;;;15.65;40.23;101931.94;5082673;27;61884;-75
2022/03/02 00:55:57;;;;;;;;;50.25;38.75;;;;;15.65;39.93;101926.63;5082389;27;62875;-74
2022/03/02 00:58:22;;;;;;;;;51.00;38.00;;;;;15.67;39.99;101929.34;5084215;27;61742;-75
2022/03/02 01:00:47;;;;;;;;;51.25;41.50;;;;;15.64;40.20;101930.13;5084021;27;61765;-75
2022/03/02 01:03:13;;;;;;;;;45.00;37.25;;;;;15.61;40.35;101927.34;5083220;28;62059;-75
2022/03/02 01:05:39;;;;;;;;;45.75;38.00;;;;;15.62;40.40;101931.81;5083253;27;62002;-75
2022/03/02 01:08:05;;;;;;;;;57.00;41.00;;;;;15.60;40.20;101933.50;5083674;27;61837;-74
2022/03/02 01:10:31;;;;;;;;;53.50;43.50;;;;;15.60;40.36;101927.31;5084368;28;61861;-75
2022/03/02 01:12:57;;;;;;;;;51.50;41.25;;;;;15.58;40.34;101927.22;5099845;27;62543;-74
2022/03/02 01:15:22;;;;;;;;;43.25;37.50;;;;;15.60;40.27;101924.66;5083509;28;63262;-74
2022/03/02 01:17:48;;;;;;;;;51.00;42.50;;;;;15.59;40.64;101926.38;5099741;27;61903;-74
2022/03/02 01:20:14;;;;;;;;;55.00;41.50;;;;;15.60;40.50;101920.25;5083680;27;62065;-75
2022/03/02 01:22:40;;;;;;;;;49.50;40.75;;;;;15.62;40.29;101921.22;5084246;27;61778;-74
2022/03/02 01:25:08;;;;;;;;;57.75;41.75;;;;;15.61;40.21;101916.75;5082964;27;62275;-75
2022/03/02 01:27:33;;;;;;;;;66.50;45.50;;;;;15.61;40.28;101921.16;5099505;27;61841;-75
2022/03/02 01:29:58;;;;;;;;;60.50;43.00;;;;;15.61;40.50;101913.22;5083724;27;61900;-75
2022/03/02 01:32:24;;;;;;;;;60.50;40.75;;;;;15.62;40.21;101912.41;5082682;27;61959;-75
2022/03/02 01:34:50;;;;;;;;;57.00;43.25;;;;;15.62;40.29;101913.28;5081514;28;63950;-75
2022/03/02 01:37:16;;;;;;;;;57.75;41.25;;;;;15.60;40.16;101907.03;5082584;27;62021;-74
2022/03/02 01:39:42;;;;;;;;;55.00;42.75;;;;;15.60;40.29;101903.50;5082829;27;61997;-75
2022/03/02 01:42:08;;;;;;;;;57.75;44.25;;;;;15.56;40.41;101906.84;5082751;28;61879;-74
2022/03/02 01:44:35;;;;;;;;;59.00;42.75;;;;;15.54;40.53;101901.47;5082332;27;61951;-74
2022/03/02 01:47:01;;;;;;;;;50.25;38.50;;;;;15.52;40.94;101896.09;5098778;27;62072;-75
2022/03/02 01:49:26;;;;;;;;;50.25;39.00;;;;;15.51;40.59;101891.66;5082735;27;61912;-74
2022/03/02 01:51:52;;;;;;;;;49.50;43.00;;;;;15.52;40.66;101895.22;5083236;27;62089;-75
2022/03/02 01:54:18;;;;;;;;;50.25;41.00;;;;;15.51;40.53;101898.69;5098280;27;63586;-75
2022/03/02 01:56:43;;;;;;;;;49.50;38.25;;;;;15.49;40.63;101893.34;5083362;27;61863;-74
2022/03/02 01:59:10;;;;;;;;;51.50;39.25;;;;;15.49;40.56;101892.44;5083138;27;61956;-74
2022/03/02 02:01:35;;;;;;;;;57.25;42.25;;;;;15.48;40.51;101880.03;5083337;27;62003;-75
2022/03/02 02:04:03;;;;;;;;;56.75;42.50;;;;;15.48;40.50;101886.22;5098501;27;64835;-75
2022/03/02 02:06:29;;;;;;;;;51.75;40.50;;;;;15.49;40.63;101887.16;5083342;27;61794;-75
2022/03/02 02:08:54;;;;;;;;;52.00;42.00;;;;;15.50;40.34;101879.25;5081992;28;62049;-75
2022/03/02 02:11:20;;;;;;;;;53.00;41.75;;;;;15.48;40.43;101880.03;5083108;27;61693;-74
2022/03/02 02:13:45;;;;;;;;;56.50;42.50;;;;;15.47;40.60;101873.84;5082401;27;61739;-75
2022/03/02 02:16:13;;;;;;;;;54.00;41.25;;;;;15.44;40.52;101868.41;5081613;27;61703;-75
2022/03/02 02:18:39;;;;;;;;;55.00;42.50;;;;;15.44;40.39;101871.06;5083131;27;62300;-75
2022/03/02 02:21:10;;;;;;;;;56.50;42.00;;;;;15.42;40.56;101869.19;5083306;27;61980;-75
2022/03/02 02:23:37;;;;;;;;;57.75;39.75;;;;;15.38;40.25;101870.84;5080762;27;63333;-74
2022/03/02 02:26:04;;;;;;;;;48.75;37.00;;;;;15.33;40.04;101861.78;5083032;27;61888;-75
2022/03/02 02:28:31;;;;;;;;;57.25;43.50;;;;;15.31;40.39;101852.88;5082897;27;61989;-75
2022/03/02 02:30:58;;;;;;;;;50.75;41.50;;;;;15.30;40.69;101854.63;5081652;27;62125;-74
2022/03/02 02:33:25;;;;;;;;;56.25;42.75;;;;;15.30;40.67;101851.09;5081817;27;62043;-75
2022/03/02 02:35:50;;;;;;;;;65.75;43.50;;;;;15.28;40.33;101848.34;5082879;27;61711;-74
2022/03/02 02:38:17;;;;;;;;;45.00;39.00;;;;;15.28;40.70;101845.72;5082587;27;62030;-75
2022/03/02 02:40:43;;;;;;;;;51.75;38.75;;;;;15.26;40.51;101839.44;5083065;27;61936;-74
2022/03/02 02:43:10;;;;;;;;;52.50;40.25;;;;;15.25;40.38;101842.03;5080609;27;64885;-75
2022/03/02 02:45:35;;;;;;;;;46.50;38.75;;;;;15.22;40.40;101844.56;5082018;27;62111;-75
2022/03/02 02:48:01;;;;;;;;;44.00;36.50;;;;;15.15;40.31;101830.16;5082982;27;61865;-75
2022/03/02 02:50:30;;;;;;;;;55.00;40.25;;;;;15.03;40.30;101829.63;5081126;27;61930;-75
2022/03/02 02:52:58;;;;;;;;;57.00;40.25;;;;;14.99;40.84;101823.31;5081702;27;61820;-75
2022/03/02 02:55:25;;;;;;;;;52.50;39.00;;;;;14.96;40.92;101819.66;5079793;27;61873;-75
2022/03/02 02:57:52;;;;;;;;;52.25;37.50;;;;;14.94;40.97;101811.63;5080709;27;62151;-74
2022/03/02 03:00:19;;;;;;;;;45.25;39.75;;;;;14.92;40.67;101813.31;5096695;27;62008;-74
2022/03/02 03:02:48;;;;;;;;;51.75;38.75;;;;;14.89;41.08;101814.09;5081444;27;61992;-74
2022/03/02 03:05:16;;;;;;;;;41.75;36.00;;;;;14.89;40.76;101810.56;5081900;27;61895;-75
2022/03/02 03:07:43;;;;;;;;;47.25;38.25;;;;;14.81;40.51;101807.56;5080353;27;62287;-75
2022/03/02 03:10:10;;;;;;;;;44.50;38.00;;;;;14.77;40.73;101799.44;5082375;27;61746;-75
2022/03/02 03:12:36;;;;;;;;;53.50;41.25;;;;;14.71;40.97;101795.66;5081552;28;62752;-74
2022/03/02 03:15:05;;;;;;;;;48.25;37.50;;;;;14.71;41.26;101800.06;5082060;27;61816;-74
2022/03/02 03:17:30;;;;;;;;;43.25;36.75;;;;;14.65;41.12;101799.78;5097744;27;61923;-74
2022/03/02 03:19:56;;;;;;;;;51.75;38.25;;;;;14.64;40.72;101795.34;5082453;27;61915;-75
2022/03/02 03:22:22;;;;;;;;;44.50;38.00;;;;;14.63;41.67;101801.47;5081255;27;61894;-75
2022/03/02 03:24:47;;;;;;;;;49.75;36.50;;;;;14.58;41.13;101795.09;5082060;28;61993;-75
2022/03/02 03:27:13;;;;;;;;;45.75;36.00;;;;;14.55;41.40;101801.13;5097671;27;61923;-75
2022/03/02 03:29:38;;;;;;;;;42.75;38.50;;;;;14.52;41.01;101799.25;5081650;27;62164;-75
2022/03/02 03:32:05;;;;;;;;;53.25;39.00;;;;;14.52;41.13;101799.25;5081566;27;62096;-75
2022/03/02 03:34:30;;;;;;;;;43.50;39.75;;;;;14.46;40.89;101798.97;5081489;27;61738;-74
2022/03/02 03:36:56;;;;;;;;;46.00;38.75;;;;;14.43;41.17;101796.16;5082010;27;61815;-75
2022/03/02 03:39:21;;;;;;;;;52.75;40.50;;;;;14.42;40.92;101799.66;5097851;27;62333;-75
2022/03/02 03:41:47;;;;;;;;;48.25;38.00;;;;;14.38;40.93;101788.88;5079627;28;63966;-75
2022/03/02 03:44:12;;;;;;;;;51.25;38.75;;;;;14.39;41.61;101785.38;5081017;27;61930;-75
2022/03/02 03:46:38;;;;;;;;;33.75;30.75;;;;;14.38;41.18;101791.53;5080265;28;62679;-75
2022/03/02 03:49:03;;;;;;;;;54.00;40.00;;;;;14.35;41.24;101792.25;5081990;27;61891;-75
2022/03/02 03:51:29;;;;;;;;;46.25;38.75;;;;;14.34;41.42;101787.84;5081157;27;62799;-74
2022/03/02 03:53:55;;;;;;;;;52.25;36.25;;;;;14.32;41.24;101778.94;5081714;27;61759;-75
2022/03/02 03:56:20;;;;;;;;;49.25;36.00;;;;;14.31;41.28;101778.03;5081339;27;62008;-75
2022/03/02 03:58:47;;;;;;;;;47.75;40.00;;;;;14.30;41.15;101773.56;5096980;27;62174;-75
2022/03/02 04:01:12;;;;;;;;;48.00;39.00;;;;;14.28;41.75;101771.72;5081046;27;61819;-74
2022/03/02 04:03:38;;;;;;;;;36.00;31.75;;;;;14.24;41.50;101777.69;5079703;28;61965;-75
2022/03/02 04:06:04;;;;;;;;;47.00;36.25;;;;;14.22;41.70;101774.06;5081596;27;61867;-75
2022/03/02 04:08:29;;;;;;;;;48.50;39.25;;;;;14.19;41.67;101779.22;5096262;27;62301;-75
2022/03/02 04:10:54;;;;;;;;;51.00;40.00;;;;;14.19;41.83;101771.28;5080630;27;61869;-74
2022/03/02 04:13:20;;;;;;;;;55.50;37.75;;;;;14.18;41.73;101770.41;5078679;27;61931;-75
2022/03/02 04:15:46;;;;;;;;;48.25;39.25;;;;;14.18;41.75;101773.03;5080852;27;61952;-75
2022/03/02 04:18:12;;;;;;;;;48.25;40.00;;;;;14.17;42.10;101775.59;5080417;28;62104;-75
2022/03/02 04:20:38;;;;;;;;;46.00;38.50;;;;;14.19;41.96;101776.56;5079448;28;63516;-75
2022/03/02 04:23:05;;;;;;;;;54.00;38.75;;;;;14.19;42.18;101773.94;5096802;27;61942;-74
2022/03/02 04:25:31;;;;;;;;;54.00;38.00;;;;;14.22;42.21;101774.06;5081522;27;61974;-75
2022/03/02 04:27:57;;;;;;;;;56.50;40.00;;;;;14.23;42.16;101766.22;5081039;27;61822;-74
2022/03/02 04:30:23;;;;;;;;;54.50;37.25;;;;;14.24;41.57;101757.44;5079243;28;64359;-75
2022/03/02 04:32:48;;;;;;;;;46.25;39.75;;;;;14.20;41.56;101757.25;5079723;28;62190;-75
2022/03/02 04:35:14;;;;;;;;;53.50;39.75;;;;;14.17;41.84;101758.00;5081445;27;62035;-75
2022/03/02 04:37:40;;;;;;;;;48.75;38.75;;;;;14.18;41.70;101758.91;5097030;27;62060;-75
2022/03/02 04:40:08;;;;;;;;;46.25;38.50;;;;;14.11;41.29;101756.00;5096155;27;64812;-75
2022/03/02 04:42:34;;;;;;;;;52.25;39.00;;;;;14.06;41.28;101752.25;5080918;27;62167;-74
2022/03/02 04:44:59;;;;;;;;;59.25;42.75;;;;;14.03;41.26;101754.75;5096128;27;61769;-75
2022/03/02 04:47:25;;;;;;;;;51.00;38.00;;;;;13.99;41.30;101750.16;5081219;27;62072;-75
2022/03/02 04:49:51;;;;;;;;;47.75;36.00;;;;;13.96;41.42;101744.72;5095850;27;63852;-74
2022/03/02 04:52:17;;;;;;;;;49.00;40.25;;;;;13.97;41.44;101748.28;5096695;27;61916;-75
2022/03/02 04:57:28;;;;;;;;;45.75;36.50;;;;;14.05;42.17;101749.53;5080768;28;61920;-75
2022/03/02 04:59:53;;;;;;;;;49.50;36.00;;;;;14.03;41.40;101752.13;5095581;27;63835;-75
2022/03/02 05:02:18;;;;;;;;;52.25;37.50;;;;;14.02;41.76;101749.41;5080521;27;62044;-74
2022/03/02 05:04:44;;;;;;;;;54.00;40.50;;;;;14.04;41.50;101753.91;5079589;27;61974;-74
2022/03/02 05:07:09;;;;;;;;;46.25;38.50;;;;;14.08;41.65;101747.94;5095511;27;61763;-75
2022/03/02 05:09:35;;;;;;;;;50.25;40.75;;;;;14.10;41.63;101743.63;5078396;28;63258;-75
2022/03/02 05:12:02;;;;;;;;;53.75;40.00;;;;;14.16;41.90;101744.72;5080259;28;61670;-75
2022/03/02 05:14:31;;;;;;;;;54.25;42.00;;;;;14.19;42.17;101739.59;5080527;27;61736;-75
2022/03/02 05:16:56;;;;;;;;;52.75;40.75;;;;;14.23;41.92;101737.16;5079264;27;61935;-75
2022/03/02 05:19:22;;;;;;;;;50.50;38.25;;;;;14.26;41.80;101742.56;5095715;27;64665;-74
2022/03/02 05:21:47;;;;;;;;;55.00;43.00;;;;;14.28;41.55;101734.72;5080411;27;61884;-75
2022/03/02 05:24:14;;;;;;;;;43.75;37.00;;;;;14.29;41.33;101731.28;5082165;27;61703;-74
2022/03/02 05:26:40;;;;;;;;;58.75;42.25;;;;;14.27;41.46;101723.28;5082491;28;61818;-74
2022/03/02 05:29:05;;;;;;;;;55.50;39.50;;;;;14.30;41.38;101725.13;5083119;27;62388;-75
2022/03/02 05:31:31;;;;;;;;;52.00;43.75;;;;;14.27;40.93;101720.63;5099435;27;61723;-75
2022/03/02 05:33:58;;;;;;;;;41.75;38.00;;;;;14.22;41.28;101716.88;5099758;27;61829;-75
2022/03/02 05:36:28;;;;;;;;;55.00;42.25;;;;;14.21;41.37;101711.53;5084068;28;61773;-74
2022/03/02 05:38:54;;;;;;;;;49.75;41.25;;;;;14.20;41.27;101722.91;5099120;27;63923;-75
2022/03/02 05:41:20;;;;;;;;;47.25;37.75;;;;;14.22;41.18;101719.50;5083374;28;61906;-74
2022/03/02 05:43:46;;;;;;;;;56.25;42.00;;;;;14.22;41.43;101714.22;5099333;27;61912;-75
2022/03/02 05:46:12;;;;;;;;;48.75;40.25;;;;;14.23;41.42;101716.03;5083042;27;61918;-74
2022/03/02 05:48:37;;;;;;;;;51.50;38.00;;;;;14.21;41.43;101719.47;5083336;28;61815;-75
2022/03/02 05:51:03;;;;;;;;;49.25;42.75;;;;;14.18;41.25;101711.38;5083370;27;61886;-75
2022/03/02 05:53:29;;;;;;;;;54.75;39.50;;;;;14.17;41.77;101722.78;5083817;28;61957;-75
2022/03/02 05:55:54;;;;;;;;;52.00;38.75;;;;;14.16;41.09;101713.06;5083540;27;61700;-74
2022/03/02 05:58:20;;;;;;;;;56.50;42.00;;;;;14.13;41.66;101716.47;5098377;27;63701;-75
2022/03/02 06:00:45;;;;;;;;;54.00;39.25;;;;;14.12;41.31;101709.41;5083459;27;62232;-74
2022/03/02 06:03:10;;;;;;;;;61.50;40.25;;;;;14.08;41.47;101710.97;5083454;27;62077;-75
2022/03/02 06:05:36;;;;;;;;;45.50;38.50;;;;;14.09;41.20;101706.59;5083783;27;62184;-75
2022/03/02 06:08:01;;;;;;;;;49.50;38.25;;;;;14.07;41.53;101705.63;5081503;28;62732;-75
2022/03/02 06:10:27;;;;;;;;;41.00;38.75;;;;;14.04;41.83;101708.13;5082636;27;61814;-75
2022/03/02 06:12:53;;;;;;;;;54.00;38.25;;;;;14.03;41.65;101711.59;5083263;27;61850;-75
2022/03/02 06:15:19;;;;;;;;;57.75;42.50;;;;;14.01;41.25;101719.47;5083245;27;61906;-76
2022/03/02 06:17:44;;;;;;;;;56.25;42.25;;;;;13.96;41.51;101717.44;5081170;27;63214;-79
2022/03/02 06:20:11;;;;;;;;;51.75;41.50;;;;;13.97;42.02;101713.94;5083011;27;61741;-78
2022/03/02 06:22:37;;;;;;;;;46.75;40.75;;;;;13.97;41.39;101708.66;5083164;27;61653;-78
2022/03/02 06:25:04;;;;;;;;;59.25;45.00;;;;;13.91;41.68;101712.84;5083134;27;61865;-78
2022/03/02 06:27:30;;;;;;;;;55.25;39.50;;;;;13.93;41.82;101706.75;5080776;27;63544;-79
2022/03/02 06:29:55;;;;;;;;;50.25;37.50;;;;;13.95;41.90;101715.66;5081569;27;62190;-79
2022/03/02 06:32:21;;;;;;;;;49.25;39.50;;;;;13.94;41.61;101706.81;5082889;27;61982;-78
2022/03/02 06:34:46;;;;;;;;;50.75;40.00;;;;;13.96;41.79;101712.16;5082297;27;61969;-78
2022/03/02 06:37:12;;;;;;;;;52.75;43.00;;;;;13.90;41.26;101711.06;5080741;27;63679;-79
2022/03/02 06:39:38;;;;;;;;;46.50;39.00;;;;;13.88;41.31;101714.44;5082109;27;61965;-78
2022/03/02 06:42:05;;;;;;;;;52.25;39.00;;;;;13.84;41.01;101718.69;5080807;28;62142;-78
2022/03/02 06:44:57;;;;;;;;;49.00;39.50;;;;;13.86;41.72;101717.03;5090390;27;61889;-78
2022/03/02 06:47:31;;;;;;;;;47.50;39.75;;;;;13.91;41.88;101720.78;5079458;27;62182;-78
2022/03/02 06:50:10;;;;;;;;;53.50;39.50;;;;;13.97;41.83;101719.22;5064455;27;61868;-77
2022/03/02 06:52:43;;;;;;;;;55.00;40.75;;;;;13.95;41.41;101716.53;5081539;27;61676;-77
2022/03/02 06:55:17;;;;;;;;;58.75;42.75;;;;;13.93;41.34;101717.31;5080492;28;62173;-78
2022/03/02 06:57:50;;;;;;;;;48.50;39.00;;;;;13.97;41.13;101724.50;5078042;27;64089;-78
2022/03/02 07:00:16;;;;;;;;;54.25;39.50;;;;;13.94;41.19;101720.00;5097572;27;62008;-78
2022/03/02 07:02:46;;;;;;;;;57.00;40.75;;;;;13.94;41.29;101727.03;5082282;28;62237;-78
2022/03/02 07:05:11;;;;;;;;;50.50;38.75;;;;;13.95;41.74;101726.22;5081463;27;61877;-78
2022/03/02 07:07:38;;;;;;;;;46.50;35.00;;;;;14.01;41.58;101724.75;5075331;28;64939;-78
2022/03/02 07:10:06;;;;;;;;;56.75;39.00;;;;;14.03;41.60;101719.50;5062026;28;61915;-78
2022/03/02 07:12:32;;;;;;;;;47.75;37.75;;;;;14.02;41.31;101720.38;5077700;28;61907;-77
2022/03/02 07:14:57;;;;;;;;;55.50;40.00;;;;;14.03;41.74;101722.16;5060803;28;62083;-78
2022/03/02 07:17:23;;;;;;;;;48.75;38.25;;;;;14.05;41.62;101729.34;5073426;28;62102;-75
2022/03/02 07:19:49;;;;;;;;;47.50;37.50;;;;;14.08;41.52;101726.81;5081943;28;62032;-77
2022/03/02 07:22:22;;;;;;;;;55.50;42.00;;;;;14.14;41.61;101728.84;5082053;27;61748;-75
2022/03/02 07:24:53;;;;;;;;;48.50;38.00;;;;;14.22;41.73;101729.16;5081985;27;62074;-75
2022/03/02 07:27:19;;;;;;;;;46.25;39.50;;;;;14.30;41.31;101728.69;5080099;28;63830;-76
2022/03/02 07:29:49;;;;;;;;;47.75;37.25;;;;;14.32;41.19;101729.66;5081472;28;61818;-76
2022/03/02 07:32:21;;;;;;;;;46.25;38.75;;;;;14.34;40.94;101729.72;5080727;28;61847;-75
2022/03/02 07:34:52;;;;;;;;;55.75;40.25;;;;;14.34;40.91;101727.09;5082029;27;62167;-75
2022/03/02 07:37:18;;;;;;;;;53.25;33.00;;;;;14.37;40.59;101726.31;5079816;27;63467;-76
2022/03/02 07:39:43;;;;;;;;;52.75;37.75;;;;;14.43;40.91;101723.94;5080196;28;61753;-75
2022/03/02 07:42:09;;;;;;;;;56.50;40.00;;;;;14.50;40.61;101723.34;5080338;27;61778;-75
2022/03/02 07:44:34;;;;;;;;;50.50;41.00;;;;;14.55;40.20;101723.59;5080418;28;62235;-75
2022/03/02 07:47:00;;;;;;;;;58.50;41.00;;;;;14.61;40.39;101714.22;5080625;27;61984;-75
2022/03/02 07:49:25;;;;;;;;;56.00;42.00;;;;;14.69;40.01;101714.53;5077713;28;62369;-72
2022/03/02 07:51:53;;;;;;;;;56.75;44.25;;;;;14.77;40.38;101707.81;5081181;27;62204;-77
2022/03/02 07:54:21;;;;;;;;;43.00;37.50;;;;;14.84;40.16;101712.53;5079650;27;61907;-76
2022/03/02 07:56:47;;;;;;;;;52.50;43.50;;;;;14.85;39.44;101713.44;5073341;28;63770;-76
2022/03/02 07:59:16;;;;;;;;;42.75;36.25;;;;;14.83;39.78;101708.09;5066700;28;62592;-77
2022/03/02 08:01:42;;;;;;;;;55.50;41.00;;;;;14.83;39.37;101707.19;5080387;27;61888;-77
2022/03/02 08:04:10;;;;;;;;;46.50;40.25;;;;;14.89;39.26;101711.00;5080316;27;61750;-77
2022/03/02 08:06:37;;;;;;;;;61.00;40.75;;;;;14.96;39.74;101705.97;5079688;27;62334;-76
2022/03/02 08:09:04;;;;;;;;;54.50;41.25;;;;;15.03;39.15;101711.53;5078708;27;62374;-77
2022/03/02 08:11:32;;;;;;;;;59.50;41.50;;;;;15.09;39.27;101708.25;5096715;27;61924;-76
2022/03/02 08:13:59;;;;;;;;;50.00;41.75;;;;;15.13;39.54;101713.75;5088312;27;62187;-77
2022/03/02 08:16:27;;;;;;;;;45.50;40.75;;;;;15.19;38.82;101709.53;5078436;28;64062;-77
2022/03/02 08:18:53;;;;;;;;;48.00;39.00;;;;;15.29;39.26;101719.63;5080315;28;61969;-76
2022/03/02 08:21:20;;;;;;;;;42.25;37.25;;;;;15.40;39.14;101717.41;5087334;27;61949;-76
2022/03/02 08:23:50;;;;;;;;;52.00;37.75;;;;;15.53;39.10;101717.97;5080710;27;62198;-77
2022/03/02 08:26:20;;;;;;;;;55.75;39.25;;;;;15.60;38.73;101713.81;5075667;28;63720;-76
2022/03/02 08:28:46;;;;;;;;;53.25;35.25;;;;;15.66;38.54;101711.41;5085472;27;61996;-77
2022/03/02 08:31:14;;;;;;;;;44.25;37.00;;;;;15.71;38.63;101704.56;5078410;28;62222;-77
2022/03/02 08:33:41;;;;;;;;;53.25;40.00;;;;;15.79;37.74;101712.81;5078753;28;61885;-76
2022/03/02 08:36:09;;;;;;;;;49.00;38.75;;;;;15.84;38.27;101705.06;5086892;27;64086;-77
2022/03/02 08:38:40;;;;;;;;;53.50;37.75;;;;;15.91;38.21;101709.72;5078136;28;61883;-76
2022/03/02 08:41:07;;;;;;;;;44.25;40.00;;;;;15.99;38.13;101705.63;5080197;27;62086;-77
2022/03/02 08:43:35;;;;;;;;;56.25;42.00;;;;;16.05;37.70;101713.78;5080515;27;61995;-77
2022/03/02 08:46:01;;;;;;;;;40.00;35.50;;;;;16.04;37.27;101713.72;5079361;28;61853;-77
2022/03/02 08:48:27;;;;;;;;;52.50;40.50;;;;;16.12;37.69;101715.81;5080054;28;61908;-77
2022/03/02 08:50:56;;;;;;;;;49.25;41.00;;;;;16.21;37.94;101717.00;5087634;27;62102;-77
2022/03/02 08:53:24;;;;;;;;;53.75;39.50;;;;;16.30;37.75;101715.59;5079775;27;61814;-77
2022/03/02 08:55:51;;;;;;;;;46.00;36.75;;;;;16.36;36.94;101718.44;5079147;28;63411;-80
2022/03/02 08:58:16;;;;;;;;;45.25;37.50;;;;;16.42;37.29;101712.47;5079757;28;61872;-80
2022/03/02 09:00:42;;;;;;;;;56.00;41.50;;;;;16.51;36.91;101715.44;5082433;27;62085;-80
2022/03/02 09:03:13;;;;;;;;;50.25;40.00;;;;;16.58;37.29;101705.03;5080472;27;62394;-80
2022/03/02 09:05:39;;;;;;;;;52.75;40.00;;;;;16.67;36.85;101705.38;5078751;28;65095;-80
2022/03/02 09:08:06;;;;;;;;;48.75;38.00;;;;;16.73;36.28;101690.59;5081477;27;61965;-80
2022/03/02 09:10:32;;;;;;;;;47.25;38.50;;;;;16.69;35.97;101693.09;5080398;28;62027;-80
2022/03/02 09:12:59;;;;;;;;;57.25;43.50;;;;;16.74;36.21;101697.66;5097875;27;62247;-79
2022/03/02 09:15:26;;;;;;;;;53.25;41.75;;;;;16.84;36.33;101690.97;5080052;27;63308;-80
2022/03/02 09:17:52;;;;;;;;;54.00;41.25;;;;;16.84;35.25;101690.06;5078395;27;61895;-80
2022/03/02 09:20:17;;;;;;;;;55.75;41.75;;;;;16.81;35.69;101688.19;5080594;28;62090;-80
2022/03/02 09:22:44;;;;;;;;;52.25;40.00;;;;;16.91;36.30;101686.78;5082484;28;61712;-80
2022/03/02 09:25:09;;;;;;;;;58.25;40.75;;;;;17.05;35.97;101681.91;5079983;28;64657;-80
2022/03/02 09:27:36;;;;;;;;;49.25;40.00;;;;;17.16;35.56;101681.41;5097669;27;61933;-80
2022/03/02 09:30:06;;;;;;;;;47.00;37.25;;;;;17.29;35.22;101681.81;5082030;27;62393;-80
2022/03/02 09:32:32;;;;;;;;;44.50;34.50;;;;;17.35;35.29;101676.66;5075070;28;62152;-80
2022/03/02 09:34:59;;;;;;;;;46.25;38.50;;;;;17.45;35.84;101683.16;5081612;28;61941;-80
2022/03/02 09:37:27;;;;;;;;;52.75;40.00;;;;;17.54;35.29;101679.03;5078094;27;61935;-79
2022/03/02 09:39:53;;;;;;;;;60.00;41.75;;;;;17.61;35.47;101681.88;5078570;28;62160;-80
2022/03/02 09:42:26;;;;;;;;;62.25;42.25;;;;;17.57;34.03;101680.91;5081499;27;61874;-79
2022/03/02 09:45:05;;;;;;;;;56.25;42.75;;;;;17.53;34.39;101684.31;5081158;27;61944;-79
2022/03/02 09:47:56;;;;;;;;;56.50;41.00;;;;;17.61;35.52;101679.22;5080270;28;61903;-79
2022/03/02 09:50:24;;;;;;;;;54.75;41.50;;;;;17.65;34.07;101676.72;5077088;28;61980;-79
2022/03/02 09:52:52;;;;;;;;;48.75;39.25;;;;;17.71;34.59;101684.84;5080671;28;61976;-75
2022/03/02 09:55:23;;;;;;;;;44.50;37.00;;;;;17.78;34.38;101683.25;5080792;27;61930;-76
2022/03/02 09:57:59;;;;;;;;;46.25;37.75;;;;;17.75;33.46;101685.84;5079854;27;62077;-77
2022/03/02 10:00:27;;;;;;;;;40.00;35.00;;;;;17.75;33.90;101683.19;5080526;28;61793;-79
2022/03/02 10:02:56;;;;;;;;;41.75;20.75;;;;;17.78;34.00;101686.84;5080804;28;61975;-76
2022/03/02 10:05:32;;;;;;;;;57.50;41.25;;;;;17.83;34.18;101683.47;5078595;28;62073;-76
2022/03/02 10:08:05;;;;;;;;;52.50;41.00;;;;;17.90;34.72;101682.75;5082881;27;61940;-76
2022/03/02 10:10:33;;;;;;;;;45.50;37.50;;;;;17.99;34.44;101675.06;5081722;27;62051;-76
2022/03/02 10:13:02;;;;;;;;;55.50;40.00;;;;;18.09;34.35;101676.22;5082555;28;61870;-76
2022/03/02 10:15:29;;;;;;;;;58.25;43.25;;;;;18.20;34.02;101677.41;5081176;27;63307;-76
2022/03/02 10:17:58;;;;;;;;;44.75;37.75;;;;;18.28;33.47;101664.34;5081286;28;61995;-76
2022/03/02 10:20:30;;;;;;;;;57.25;39.00;;;;;18.38;34.03;101674.34;5081394;28;62008;-76
2022/03/02 10:23:18;;;;;;;;;50.00;38.00;;;;;18.46;34.20;101662.16;5091550;27;61866;-76
2022/03/02 10:26:04;;;;;;;;;46.50;41.00;;;;;18.54;34.15;101663.25;5078673;28;65093;-75
2022/03/02 10:29:17;;;;;;;;;54.25;40.75;;;;;18.67;34.31;101663.59;5072887;27;62108;-76
2022/03/02 10:32:05;;;;;;;;;53.75;42.00;;;;;18.77;33.58;101655.88;5073347;27;61861;-76
2022/03/02 10:34:34;;;;;;;;;52.25;40.75;;;;;18.88;33.15;101653.50;5069135;28;61759;-76
2022/03/02 10:37:05;;;;;;;;;47.00;38.75;;;;;18.97;33.40;101642.19;5070665;28;63587;-76
2022/03/02 10:40:05;;;;;;;;;56.25;39.25;;;;;19.11;33.84;101640.75;5080504;27;62041;-76
2022/03/02 10:42:35;;;;;;;;;45.00;37.25;;;;;19.27;32.43;101638.44;5076486;28;62214;-76
2022/03/02 10:45:08;;;;;;;;;49.75;35.50;;;;;19.31;32.52;101641.19;5080028;27;62063;-76
2022/03/02 10:47:50;;;;;;;;;46.00;36.50;;;;;19.44;32.75;101641.47;5074191;28;63542;-76
2022/03/02 10:50:17;;;;;;;;;49.75;42.00;;;;;19.55;31.44;101637.25;5087011;27;61855;-76
2022/03/02 10:52:46;;;;;;;;;56.50;42.00;;;;;19.44;31.52;101633.47;5080337;27;61835;-76
2022/03/02 10:55:13;;;;;;;;;54.50;42.00;;;;;19.38;31.62;101637.78;5078991;28;61877;-76
2022/03/02 10:57:39;;;;;;;;;38.25;36.50;;;;;19.56;32.69;101629.31;5092815;27;63748;-76
2022/03/02 11:00:11;;;;;;;;;53.25;40.00;;;;;19.69;32.47;101629.56;5079620;27;62095;-76
2022/03/02 11:02:49;;;;;;;;;54.00;38.50;;;;;19.79;32.05;101624.50;5078719;28;62116;-75
2022/03/02 11:05:19;;;;;;;;;54.00;42.25;;;;;19.92;31.84;101628.28;5080213;28;61789;-75
2022/03/02 11:07:46;;;;;;;;;55.00;39.50;;;;;20.00;31.92;101624.00;5078523;27;63061;-75
2022/03/02 11:10:16;;;;;;;;;54.50;40.50;;;;;20.09;31.68;101619.72;5079877;28;61948;-75
2022/03/02 11:12:51;;;;;;;;;47.75;37.75;;;;;20.16;31.59;101622.53;5076021;28;61906;-74